sensor_id;sensor_type;location;lat;lon;timestamp;P1;durP1;ratioP1;P2;durP2;ratioP2
26375;SDS011;30544;42.196;24.336;2023-03-14T00:02:22;39.85;;;19.10;;
26375;SDS011;30544;42.196;24.336;2023-03-14T00:04:49;34.10;;;19.98;;
26375;SDS011;30544;42.196;24.336;2023-03-14T00:07:15;42.83;;;19.80;;
26375;SDS011;30544;42.196;24.336;2023-03-14T00:09:42;36.08;;;18.60;;
26375;SDS011;30544;42.196;24.336;2023-03-14T00:12:10;35.28;;;18.17;;
26375;SDS011;30544;42.196;24.336;2023-03-14T00:14:39;35.72;;;20.20;;
26375;SDS011;30544;42.196;24.336;2023-03-14T00:17:07;33.13;;;19.50;;
26375;SDS011;30544;42.196;24.336;2023-03-14T00:19:34;31.80;;;18.08;;
26375;SDS011;30544;42.196;24.336;2023-03-14T00:22:01;33.25;;;18.33;;
26375;SDS011;30544;42.196;24.336;2023-03-14T00:24:27;32.90;;;18.77;;
26375;SDS011;30544;42.196;24.336;2023-03-14T00:26:54;39.28;;;22.02;;
26375;SDS011;30544;42.196;24.336;2023-03-14T00:29:22;44.50;;;24.73;;
26375;SDS011;30544;42.196;24.336;2023-03-14T00:31:49;49.38;;;27.98;;
26375;SDS011;30544;42.196;24.336;2023-03-14T00:34:16;48.22;;;28.35;;
26375;SDS011;30544;42.196;24.336;2023-03-14T00:36:42;55.47;;;32.25;;
26375;SDS011;30544;42.196;24.336;2023-03-14T00:39:11;61.63;;;37.03;;
26375;SDS011;30544;42.196;24.336;2023-03-14T00:41:37;75.65;;;45.20;;
26375;SDS011;30544;42.196;24.336;2023-03-14T00:44:04;88.35;;;51.85;;
26375;SDS011;30544;42.196;24.336;2023-03-14T00:46:32;88.38;;;51.88;;
26375;SDS011;30544;42.196;24.336;2023-03-14T00:48:59;84.35;;;52.13;;
26375;SDS011;30544;42.196;24.336;2023-03-14T00:51:26;88.93;;;52.13;;
26375;SDS011;30544;42.196;24.336;2023-03-14T00:53:53;86.07;;;49.60;;
26375;SDS011;30544;42.196;24.336;2023-03-14T00:56:20;94.68;;;53.38;;
26375;SDS011;30544;42.196;24.336;2023-03-14T00:58:47;88.60;;;52.35;;
26375;SDS011;30544;42.196;24.336;2023-03-14T01:01:14;88.80;;;50.28;;
26375;SDS011;30544;42.196;24.336;2023-03-14T01:03:44;83.47;;;48.97;;
26375;SDS011;30544;42.196;24.336;2023-03-14T01:06:12;84.53;;;48.08;;
26375;SDS011;30544;42.196;24.336;2023-03-14T01:08:41;78.35;;;47.10;;
26375;SDS011;30544;42.196;24.336;2023-03-14T01:11:09;80.00;;;47.38;;
26375;SDS011;30544;42.196;24.336;2023-03-14T01:13:37;79.40;;;45.55;;
26375;SDS011;30544;42.196;24.336;2023-03-14T01:16:05;79.22;;;45.08;;
26375;SDS011;30544;42.196;24.336;2023-03-14T01:18:34;72.72;;;40.85;;
26375;SDS011;30544;42.196;24.336;2023-03-14T01:21:02;69.68;;;38.22;;
26375;SDS011;30544;42.196;24.336;2023-03-14T01:23:30;70.78;;;36.65;;
26375;SDS011;30544;42.196;24.336;2023-03-14T01:25:57;67.57;;;36.63;;
26375;SDS011;30544;42.196;24.336;2023-03-14T01:28:24;58.78;;;34.50;;
26375;SDS011;30544;42.196;24.336;2023-03-14T01:30:50;69.15;;;35.83;;
26375;SDS011;30544;42.196;24.336;2023-03-14T01:33:17;68.85;;;35.00;;
26375;SDS011;30544;42.196;24.336;2023-03-14T01:35:44;65.35;;;35.08;;
26375;SDS011;30544;42.196;24.336;2023-03-14T01:38:12;65.32;;;36.17;;
26375;SDS011;30544;42.196;24.336;2023-03-14T01:40:42;68.13;;;38.50;;
26375;SDS011;30544;42.196;24.336;2023-03-14T01:43:14;59.63;;;32.70;;
26375;SDS011;30544;42.196;24.336;2023-03-14T01:48:46;51.13;;;26.42;;
26375;SDS011;30544;42.196;24.336;2023-03-14T01:51:17;39.35;;;22.33;;
26375;SDS011;30544;42.196;24.336;2023-03-14T01:53:49;47.60;;;25.98;;
26375;SDS011;30544;42.196;24.336;2023-03-14T01:56:19;39.28;;;22.98;;
26375;SDS011;30544;42.196;24.336;2023-03-14T01:58:47;38.63;;;20.70;;
26375;SDS011;30544;42.196;24.336;2023-03-14T02:01:18;38.63;;;22.63;;
26375;SDS011;30544;42.196;24.336;2023-03-14T02:03:48;40.63;;;21.55;;
26375;SDS011;30544;42.196;24.336;2023-03-14T02:06:19;42.00;;;23.17;;
26375;SDS011;30544;42.196;24.336;2023-03-14T02:08:50;42.08;;;26.10;;
26375;SDS011;30544;42.196;24.336;2023-03-14T02:11:17;39.17;;;22.30;;
26375;SDS011;30544;42.196;24.336;2023-03-14T02:13:45;42.88;;;24.33;;
26375;SDS011;30544;42.196;24.336;2023-03-14T02:16:12;40.50;;;23.45;;
26375;SDS011;30544;42.196;24.336;2023-03-14T02:18:39;34.53;;;21.00;;
26375;SDS011;30544;42.196;24.336;2023-03-14T02:21:08;34.33;;;19.08;;
26375;SDS011;30544;42.196;24.336;2023-03-14T02:23:43;32.10;;;18.63;;
26375;SDS011;30544;42.196;24.336;2023-03-14T02:26:20;36.63;;;18.48;;
26375;SDS011;30544;42.196;24.336;2023-03-14T02:28:52;33.13;;;18.33;;
26375;SDS011;30544;42.196;24.336;2023-03-14T02:31:19;30.17;;;17.33;;
26375;SDS011;30544;42.196;24.336;2023-03-14T02:33:48;28.63;;;16.38;;
26375;SDS011;30544;42.196;24.336;2023-03-14T02:36:17;32.60;;;20.48;;
26375;SDS011;30544;42.196;24.336;2023-03-14T02:38:47;28.23;;;14.68;;
26375;SDS011;30544;42.196;24.336;2023-03-14T02:41:18;22.33;;;12.75;;
26375;SDS011;30544;42.196;24.336;2023-03-14T02:43:45;22.92;;;12.68;;
26375;SDS011;30544;42.196;24.336;2023-03-14T02:46:13;24.02;;;13.50;;
26375;SDS011;30544;42.196;24.336;2023-03-14T02:48:43;26.58;;;14.85;;
26375;SDS011;30544;42.196;24.336;2023-03-14T02:51:13;32.00;;;16.15;;
26375;SDS011;30544;42.196;24.336;2023-03-14T02:53:41;31.88;;;16.02;;
26375;SDS011;30544;42.196;24.336;2023-03-14T02:56:08;32.28;;;16.30;;
26375;SDS011;30544;42.196;24.336;2023-03-14T02:58:35;30.50;;;15.43;;
26375;SDS011;30544;42.196;24.336;2023-03-14T03:01:02;32.30;;;16.48;;
26375;SDS011;30544;42.196;24.336;2023-03-14T03:03:30;30.83;;;18.75;;
26375;SDS011;30544;42.196;24.336;2023-03-14T03:05:57;27.25;;;13.85;;
26375;SDS011;30544;42.196;24.336;2023-03-14T03:08:25;25.23;;;13.88;;
26375;SDS011;30544;42.196;24.336;2023-03-14T03:10:53;22.55;;;12.60;;
26375;SDS011;30544;42.196;24.336;2023-03-14T03:13:20;28.55;;;15.15;;
26375;SDS011;30544;42.196;24.336;2023-03-14T03:15:47;28.48;;;13.98;;
26375;SDS011;30544;42.196;24.336;2023-03-14T03:18:14;30.50;;;13.65;;
26375;SDS011;30544;42.196;24.336;2023-03-14T03:20:43;26.77;;;14.23;;
26375;SDS011;30544;42.196;24.336;2023-03-14T03:23:10;30.80;;;16.75;;
26375;SDS011;30544;42.196;24.336;2023-03-14T03:25:37;26.98;;;13.75;;
26375;SDS011;30544;42.196;24.336;2023-03-14T03:28:04;21.65;;;11.27;;
26375;SDS011;30544;42.196;24.336;2023-03-14T03:30:33;27.05;;;12.98;;
26375;SDS011;30544;42.196;24.336;2023-03-14T03:33:03;22.88;;;12.48;;
26375;SDS011;30544;42.196;24.336;2023-03-14T03:35:29;35.40;;;15.55;;
26375;SDS011;30544;42.196;24.336;2023-03-14T03:37:58;36.22;;;16.10;;
26375;SDS011;30544;42.196;24.336;2023-03-14T03:40:24;36.72;;;16.95;;
26375;SDS011;30544;42.196;24.336;2023-03-14T03:42:51;31.00;;;14.40;;
26375;SDS011;30544;42.196;24.336;2023-03-14T03:45:18;26.88;;;13.90;;
26375;SDS011;30544;42.196;24.336;2023-03-14T03:47:45;33.20;;;15.70;;
26375;SDS011;30544;42.196;24.336;2023-03-14T03:50:11;33.47;;;16.20;;
26375;SDS011;30544;42.196;24.336;2023-03-14T03:52:38;36.28;;;16.92;;
26375;SDS011;30544;42.196;24.336;2023-03-14T03:55:07;32.33;;;17.38;;
26375;SDS011;30544;42.196;24.336;2023-03-14T03:57:34;30.48;;;14.90;;
26375;SDS011;30544;42.196;24.336;2023-03-14T04:00:01;39.00;;;21.02;;
26375;SDS011;30544;42.196;24.336;2023-03-14T04:02:30;31.98;;;14.10;;
26375;SDS011;30544;42.196;24.336;2023-03-14T04:04:56;31.50;;;13.27;;
26375;SDS011;30544;42.196;24.336;2023-03-14T04:07:23;30.85;;;13.68;;
26375;SDS011;30544;42.196;24.336;2023-03-14T04:09:50;30.63;;;14.00;;
26375;SDS011;30544;42.196;24.336;2023-03-14T04:12:18;26.25;;;12.40;;
26375;SDS011;30544;42.196;24.336;2023-03-14T04:14:45;22.00;;;11.50;;
26375;SDS011;30544;42.196;24.336;2023-03-14T04:17:12;25.10;;;11.63;;
26375;SDS011;30544;42.196;24.336;2023-03-14T04:19:39;32.60;;;12.68;;
26375;SDS011;30544;42.196;24.336;2023-03-14T04:22:07;20.73;;;10.88;;
26375;SDS011;30544;42.196;24.336;2023-03-14T04:24:34;18.77;;;10.10;;
26375;SDS011;30544;42.196;24.336;2023-03-14T04:27:00;14.80;;;8.82;;
26375;SDS011;30544;42.196;24.336;2023-03-14T04:29:28;13.75;;;7.95;;
26375;SDS011;30544;42.196;24.336;2023-03-14T04:31:55;14.88;;;7.13;;
26375;SDS011;30544;42.196;24.336;2023-03-14T04:34:22;13.32;;;7.20;;
26375;SDS011;30544;42.196;24.336;2023-03-14T04:36:49;13.85;;;8.27;;
26375;SDS011;30544;42.196;24.336;2023-03-14T04:39:15;14.95;;;8.98;;
26375;SDS011;30544;42.196;24.336;2023-03-14T04:41:42;22.13;;;9.77;;
26375;SDS011;30544;42.196;24.336;2023-03-14T04:44:10;18.75;;;9.90;;
26375;SDS011;30544;42.196;24.336;2023-03-14T04:46:38;18.05;;;9.32;;
26375;SDS011;30544;42.196;24.336;2023-03-14T04:49:05;19.35;;;10.02;;
26375;SDS011;30544;42.196;24.336;2023-03-14T04:51:32;21.15;;;11.13;;
26375;SDS011;30544;42.196;24.336;2023-03-14T04:53:58;23.60;;;12.52;;
26375;SDS011;30544;42.196;24.336;2023-03-14T04:56:25;28.30;;;13.10;;
26375;SDS011;30544;42.196;24.336;2023-03-14T04:58:52;24.73;;;10.77;;
26375;SDS011;30544;42.196;24.336;2023-03-14T05:01:19;19.20;;;9.18;;
26375;SDS011;30544;42.196;24.336;2023-03-14T05:03:47;18.27;;;9.20;;
26375;SDS011;30544;42.196;24.336;2023-03-14T05:06:14;21.92;;;10.00;;
26375;SDS011;30544;42.196;24.336;2023-03-14T05:08:41;19.98;;;10.88;;
26375;SDS011;30544;42.196;24.336;2023-03-14T05:11:09;18.75;;;9.32;;
26375;SDS011;30544;42.196;24.336;2023-03-14T05:13:37;21.30;;;10.52;;
26375;SDS011;30544;42.196;24.336;2023-03-14T05:16:04;25.13;;;10.38;;
26375;SDS011;30544;42.196;24.336;2023-03-14T05:18:31;18.23;;;8.98;;
26375;SDS011;30544;42.196;24.336;2023-03-14T05:21:00;18.40;;;9.50;;
26375;SDS011;30544;42.196;24.336;2023-03-14T05:23:26;20.70;;;9.93;;
26375;SDS011;30544;42.196;24.336;2023-03-14T05:25:53;29.17;;;11.60;;
26375;SDS011;30544;42.196;24.336;2023-03-14T05:28:20;25.45;;;11.30;;
26375;SDS011;30544;42.196;24.336;2023-03-14T05:30:47;25.25;;;12.45;;
26375;SDS011;30544;42.196;24.336;2023-03-14T05:33:14;33.50;;;13.40;;
26375;SDS011;30544;42.196;24.336;2023-03-14T05:35:41;38.97;;;13.65;;
26375;SDS011;30544;42.196;24.336;2023-03-14T05:38:10;38.30;;;16.35;;
26375;SDS011;30544;42.196;24.336;2023-03-14T05:40:36;35.35;;;14.00;;
26375;SDS011;30544;42.196;24.336;2023-03-14T05:43:03;24.23;;;11.93;;
26375;SDS011;30544;42.196;24.336;2023-03-14T05:45:32;20.67;;;10.93;;
26375;SDS011;30544;42.196;24.336;2023-03-14T05:47:59;31.08;;;12.35;;
26375;SDS011;30544;42.196;24.336;2023-03-14T05:50:26;25.95;;;10.98;;
26375;SDS011;30544;42.196;24.336;2023-03-14T05:52:53;24.35;;;11.02;;
26375;SDS011;30544;42.196;24.336;2023-03-14T05:55:21;26.95;;;12.13;;
26375;SDS011;30544;42.196;24.336;2023-03-14T05:57:48;30.38;;;11.90;;
26375;SDS011;30544;42.196;24.336;2023-03-14T06:00:15;27.02;;;12.15;;
26375;SDS011;30544;42.196;24.336;2023-03-14T06:02:42;30.38;;;13.55;;
26375;SDS011;30544;42.196;24.336;2023-03-14T06:05:09;37.95;;;16.70;;
26375;SDS011;30544;42.196;24.336;2023-03-14T06:07:36;34.88;;;15.20;;
26375;SDS011;30544;42.196;24.336;2023-03-14T06:10:03;34.35;;;15.43;;
26375;SDS011;30544;42.196;24.336;2023-03-14T06:12:32;36.47;;;14.05;;
26375;SDS011;30544;42.196;24.336;2023-03-14T06:14:58;31.02;;;14.52;;
26375;SDS011;30544;42.196;24.336;2023-03-14T06:17:45;34.42;;;14.35;;
26375;SDS011;30544;42.196;24.336;2023-03-14T06:20:12;28.33;;;12.75;;
26375;SDS011;30544;42.196;24.336;2023-03-14T06:22:39;21.67;;;9.63;;
26375;SDS011;30544;42.196;24.336;2023-03-14T06:25:07;24.52;;;13.07;;
26375;SDS011;30544;42.196;24.336;2023-03-14T06:27:36;29.35;;;13.88;;
26375;SDS011;30544;42.196;24.336;2023-03-14T06:30:03;24.15;;;14.45;;
26375;SDS011;30544;42.196;24.336;2023-03-14T06:32:30;24.38;;;12.55;;
26375;SDS011;30544;42.196;24.336;2023-03-14T06:34:57;20.90;;;11.05;;
26375;SDS011;30544;42.196;24.336;2023-03-14T06:37:26;20.38;;;10.57;;
26375;SDS011;30544;42.196;24.336;2023-03-14T06:39:53;21.20;;;11.52;;
26375;SDS011;30544;42.196;24.336;2023-03-14T06:42:19;28.95;;;11.50;;
26375;SDS011;30544;42.196;24.336;2023-03-14T06:44:48;24.08;;;11.40;;
26375;SDS011;30544;42.196;24.336;2023-03-14T06:47:14;23.77;;;11.05;;
26375;SDS011;30544;42.196;24.336;2023-03-14T06:49:41;19.35;;;9.68;;
26375;SDS011;30544;42.196;24.336;2023-03-14T06:52:08;24.50;;;10.60;;
26375;SDS011;30544;42.196;24.336;2023-03-14T06:54:35;15.73;;;9.18;;
26375;SDS011;30544;42.196;24.336;2023-03-14T06:57:02;23.90;;;9.02;;
26375;SDS011;30544;42.196;24.336;2023-03-14T06:59:28;15.45;;;8.43;;
26375;SDS011;30544;42.196;24.336;2023-03-14T07:01:56;24.15;;;10.45;;
26375;SDS011;30544;42.196;24.336;2023-03-14T07:04:23;18.77;;;9.85;;
26375;SDS011;30544;42.196;24.336;2023-03-14T07:06:50;14.00;;;8.48;;
26375;SDS011;30544;42.196;24.336;2023-03-14T07:09:17;21.10;;;8.77;;
26375;SDS011;30544;42.196;24.336;2023-03-14T07:11:44;18.67;;;9.45;;
26375;SDS011;30544;42.196;24.336;2023-03-14T07:14:10;16.90;;;9.05;;
26375;SDS011;30544;42.196;24.336;2023-03-14T07:16:37;17.27;;;10.15;;
26375;SDS011;30544;42.196;24.336;2023-03-14T07:19:05;15.65;;;9.15;;
26375;SDS011;30544;42.196;24.336;2023-03-14T07:21:32;17.27;;;8.68;;
26375;SDS011;30544;42.196;24.336;2023-03-14T07:23:59;17.55;;;9.52;;
26375;SDS011;30544;42.196;24.336;2023-03-14T07:26:26;15.75;;;8.65;;
26375;SDS011;30544;42.196;24.336;2023-03-14T07:28:53;18.48;;;9.48;;
26375;SDS011;30544;42.196;24.336;2023-03-14T07:31:20;15.50;;;10.00;;
26375;SDS011;30544;42.196;24.336;2023-03-14T07:33:46;17.00;;;9.82;;
26375;SDS011;30544;42.196;24.336;2023-03-14T07:36:15;21.33;;;10.10;;
26375;SDS011;30544;42.196;24.336;2023-03-14T07:38:42;19.92;;;10.40;;
26375;SDS011;30544;42.196;24.336;2023-03-14T07:41:08;16.85;;;9.50;;
26375;SDS011;30544;42.196;24.336;2023-03-14T07:43:35;20.42;;;11.00;;
26375;SDS011;30544;42.196;24.336;2023-03-14T07:46:02;24.67;;;9.82;;
26375;SDS011;30544;42.196;24.336;2023-03-14T07:48:29;20.90;;;10.80;;
26375;SDS011;30544;42.196;24.336;2023-03-14T07:50:56;14.63;;;9.38;;
26375;SDS011;30544;42.196;24.336;2023-03-14T07:53:25;19.50;;;10.07;;
26375;SDS011;30544;42.196;24.336;2023-03-14T07:55:52;19.83;;;11.65;;
26375;SDS011;30544;42.196;24.336;2023-03-14T07:58:19;11.63;;;8.40;;
26375;SDS011;30544;42.196;24.336;2023-03-14T08:00:47;20.92;;;8.30;;
26375;SDS011;30544;42.196;24.336;2023-03-14T08:03:13;13.45;;;7.65;;
26375;SDS011;30544;42.196;24.336;2023-03-14T08:05:40;11.00;;;7.22;;
26375;SDS011;30544;42.196;24.336;2023-03-14T08:08:07;12.90;;;6.90;;
26375;SDS011;30544;42.196;24.336;2023-03-14T08:10:35;12.15;;;6.82;;
26375;SDS011;30544;42.196;24.336;2023-03-14T08:13:02;14.30;;;8.10;;
26375;SDS011;30544;42.196;24.336;2023-03-14T08:15:29;10.68;;;7.03;;
26375;SDS011;30544;42.196;24.336;2023-03-14T08:17:57;12.98;;;7.78;;
26375;SDS011;30544;42.196;24.336;2023-03-14T08:20:25;14.40;;;7.57;;
26375;SDS011;30544;42.196;24.336;2023-03-14T08:22:55;15.57;;;8.05;;
26375;SDS011;30544;42.196;24.336;2023-03-14T08:25:22;11.35;;;8.13;;
26375;SDS011;30544;42.196;24.336;2023-03-14T08:27:50;12.07;;;7.55;;
26375;SDS011;30544;42.196;24.336;2023-03-14T08:30:17;16.50;;;8.23;;
26375;SDS011;30544;42.196;24.336;2023-03-14T08:32:45;19.73;;;8.18;;
26375;SDS011;30544;42.196;24.336;2023-03-14T08:35:12;14.27;;;6.55;;
26375;SDS011;30544;42.196;24.336;2023-03-14T08:37:39;13.10;;;6.68;;
26375;SDS011;30544;42.196;24.336;2023-03-14T08:40:07;15.10;;;7.30;;
26375;SDS011;30544;42.196;24.336;2023-03-14T08:42:35;11.75;;;6.10;;
26375;SDS011;30544;42.196;24.336;2023-03-14T08:45:04;11.77;;;6.13;;
26375;SDS011;30544;42.196;24.336;2023-03-14T08:47:31;9.60;;;5.82;;
26375;SDS011;30544;42.196;24.336;2023-03-14T08:49:58;10.38;;;6.93;;
26375;SDS011;30544;42.196;24.336;2023-03-14T08:52:25;11.13;;;5.93;;
26375;SDS011;30544;42.196;24.336;2023-03-14T08:54:52;19.33;;;6.97;;
26375;SDS011;30544;42.196;24.336;2023-03-14T08:57:19;11.98;;;6.55;;
26375;SDS011;30544;42.196;24.336;2023-03-14T08:59:46;15.98;;;7.28;;
26375;SDS011;30544;42.196;24.336;2023-03-14T09:02:15;10.63;;;6.85;;
26375;SDS011;30544;42.196;24.336;2023-03-14T09:04:41;14.13;;;6.68;;
26375;SDS011;30544;42.196;24.336;2023-03-14T09:07:08;12.55;;;6.63;;
26375;SDS011;30544;42.196;24.336;2023-03-14T09:09:35;13.73;;;7.20;;
26375;SDS011;30544;42.196;24.336;2023-03-14T09:12:02;11.75;;;7.20;;
26375;SDS011;30544;42.196;24.336;2023-03-14T09:14:29;15.57;;;7.72;;
26375;SDS011;30544;42.196;24.336;2023-03-14T09:16:57;15.10;;;8.60;;
26375;SDS011;30544;42.196;24.336;2023-03-14T09:19:25;12.75;;;7.72;;
26375;SDS011;30544;42.196;24.336;2023-03-14T09:21:52;12.15;;;7.95;;
26375;SDS011;30544;42.196;24.336;2023-03-14T09:24:18;15.25;;;8.80;;
26375;SDS011;30544;42.196;24.336;2023-03-14T09:26:45;17.52;;;9.60;;
26375;SDS011;30544;42.196;24.336;2023-03-14T09:29:12;14.38;;;9.05;;
26375;SDS011;30544;42.196;24.336;2023-03-14T09:31:39;15.77;;;9.27;;
26375;SDS011;30544;42.196;24.336;2023-03-14T09:34:06;15.57;;;9.32;;
26375;SDS011;30544;42.196;24.336;2023-03-14T09:36:34;22.77;;;10.05;;
26375;SDS011;30544;42.196;24.336;2023-03-14T09:39:03;14.15;;;9.57;;
26375;SDS011;30544;42.196;24.336;2023-03-14T09:41:31;14.77;;;9.10;;
26375;SDS011;30544;42.196;24.336;2023-03-14T09:44:01;19.70;;;9.88;;
26375;SDS011;30544;42.196;24.336;2023-03-14T09:46:32;17.30;;;9.60;;
26375;SDS011;30544;42.196;24.336;2023-03-14T09:49:01;13.48;;;9.80;;
26375;SDS011;30544;42.196;24.336;2023-03-14T09:54:04;16.58;;;9.80;;
26375;SDS011;30544;42.196;24.336;2023-03-14T09:56:32;17.83;;;9.80;;
26375;SDS011;30544;42.196;24.336;2023-03-14T09:59:01;13.48;;;9.18;;
26375;SDS011;30544;42.196;24.336;2023-03-14T10:01:32;14.43;;;9.02;;
26375;SDS011;30544;42.196;24.336;2023-03-14T10:04:01;16.13;;;9.70;;
26375;SDS011;30544;42.196;24.336;2023-03-14T10:06:31;15.18;;;9.95;;
26375;SDS011;30544;42.196;24.336;2023-03-14T10:09:01;15.05;;;9.02;;
26375;SDS011;30544;42.196;24.336;2023-03-14T10:11:30;20.58;;;9.55;;
26375;SDS011;30544;42.196;24.336;2023-03-14T10:14:05;19.23;;;10.60;;
26375;SDS011;30544;42.196;24.336;2023-03-14T10:16:34;20.50;;;10.70;;
26375;SDS011;30544;42.196;24.336;2023-03-14T10:19:02;17.23;;;9.93;;
26375;SDS011;30544;42.196;24.336;2023-03-14T10:21:35;18.05;;;10.25;;
26375;SDS011;30544;42.196;24.336;2023-03-14T10:24:09;17.00;;;10.70;;
26375;SDS011;30544;42.196;24.336;2023-03-14T10:26:44;16.27;;;10.80;;
26375;SDS011;30544;42.196;24.336;2023-03-14T10:29:14;14.80;;;9.30;;
26375;SDS011;30544;42.196;24.336;2023-03-14T10:31:51;12.80;;;9.18;;
26375;SDS011;30544;42.196;24.336;2023-03-14T10:34:23;20.38;;;9.60;;
26375;SDS011;30544;42.196;24.336;2023-03-14T10:36:52;14.55;;;10.13;;
26375;SDS011;30544;42.196;24.336;2023-03-14T10:39:28;14.18;;;8.65;;
26375;SDS011;30544;42.196;24.336;2023-03-14T10:42:04;15.35;;;8.43;;
26375;SDS011;30544;42.196;24.336;2023-03-14T10:44:38;12.52;;;8.65;;
26375;SDS011;30544;42.196;24.336;2023-03-14T10:47:06;11.18;;;8.05;;
26375;SDS011;30544;42.196;24.336;2023-03-14T10:52:12;13.13;;;8.15;;
26375;SDS011;30544;42.196;24.336;2023-03-14T10:54:43;14.98;;;8.40;;
26375;SDS011;30544;42.196;24.336;2023-03-14T10:57:13;14.07;;;7.85;;
26375;SDS011;30544;42.196;24.336;2023-03-14T10:59:41;12.57;;;6.93;;
26375;SDS011;30544;42.196;24.336;2023-03-14T11:02:15;12.27;;;7.65;;
26375;SDS011;30544;42.196;24.336;2023-03-14T11:05:00;12.98;;;9.27;;
26375;SDS011;30544;42.196;24.336;2023-03-14T11:07:35;11.48;;;7.22;;
26375;SDS011;30544;42.196;24.336;2023-03-14T11:10:09;12.98;;;7.90;;
26375;SDS011;30544;42.196;24.336;2023-03-14T11:12:47;12.63;;;8.45;;
26375;SDS011;30544;42.196;24.336;2023-03-14T11:15:23;12.13;;;8.10;;
26375;SDS011;30544;42.196;24.336;2023-03-14T11:18:07;16.52;;;9.75;;
26375;SDS011;30544;42.196;24.336;2023-03-14T11:20:47;16.60;;;8.18;;
26375;SDS011;30544;42.196;24.336;2023-03-14T11:23:22;14.93;;;8.35;;
26375;SDS011;30544;42.196;24.336;2023-03-14T11:25:54;15.48;;;8.07;;
26375;SDS011;30544;42.196;24.336;2023-03-14T11:28:28;19.77;;;8.00;;
26375;SDS011;30544;42.196;24.336;2023-03-14T11:31:02;13.00;;;7.88;;
26375;SDS011;30544;42.196;24.336;2023-03-14T11:33:37;12.68;;;8.13;;
26375;SDS011;30544;42.196;24.336;2023-03-14T11:36:06;12.05;;;8.13;;
26375;SDS011;30544;42.196;24.336;2023-03-14T11:38:35;13.70;;;8.68;;
26375;SDS011;30544;42.196;24.336;2023-03-14T11:41:10;15.32;;;8.80;;
26375;SDS011;30544;42.196;24.336;2023-03-14T11:43:40;12.15;;;7.82;;
26375;SDS011;30544;42.196;24.336;2023-03-14T11:46:09;11.27;;;8.13;;
26375;SDS011;30544;42.196;24.336;2023-03-14T11:48:41;13.77;;;8.07;;
26375;SDS011;30544;42.196;24.336;2023-03-14T11:51:13;14.00;;;8.00;;
26375;SDS011;30544;42.196;24.336;2023-03-14T11:53:48;10.68;;;7.00;;
26375;SDS011;30544;42.196;24.336;2023-03-14T11:56:24;12.98;;;7.75;;
26375;SDS011;30544;42.196;24.336;2023-03-14T11:58:57;16.58;;;8.88;;
26375;SDS011;30544;42.196;24.336;2023-03-14T12:01:28;15.82;;;8.88;;
26375;SDS011;30544;42.196;24.336;2023-03-14T12:04:15;19.42;;;8.30;;
26375;SDS011;30544;42.196;24.336;2023-03-14T12:06:48;11.48;;;7.43;;
26375;SDS011;30544;42.196;24.336;2023-03-14T12:09:16;10.43;;;7.22;;
26375;SDS011;30544;42.196;24.336;2023-03-14T12:11:48;10.88;;;7.32;;
26375;SDS011;30544;42.196;24.336;2023-03-14T12:14:22;14.30;;;7.38;;
26375;SDS011;30544;42.196;24.336;2023-03-14T12:16:53;10.57;;;7.05;;
26375;SDS011;30544;42.196;24.336;2023-03-14T12:19:31;7.28;;;6.28;;
26375;SDS011;30544;42.196;24.336;2023-03-14T12:22:00;9.63;;;7.00;;
26375;SDS011;30544;42.196;24.336;2023-03-14T12:24:40;10.85;;;6.75;;
26375;SDS011;30544;42.196;24.336;2023-03-14T12:27:37;11.68;;;7.10;;
26375;SDS011;30544;42.196;24.336;2023-03-14T12:30:31;12.90;;;6.88;;
26375;SDS011;30544;42.196;24.336;2023-03-14T12:35:52;14.25;;;7.85;;
26375;SDS011;30544;42.196;24.336;2023-03-14T12:38:26;19.75;;;8.07;;
26375;SDS011;30544;42.196;24.336;2023-03-14T12:40:59;19.17;;;8.63;;
26375;SDS011;30544;42.196;24.336;2023-03-14T12:43:33;19.03;;;8.47;;
26375;SDS011;30544;42.196;24.336;2023-03-14T12:48:54;17.00;;;8.27;;
26375;SDS011;30544;42.196;24.336;2023-03-14T12:51:27;13.70;;;9.13;;
26375;SDS011;30544;42.196;24.336;2023-03-14T12:54:02;20.95;;;10.43;;
26375;SDS011;30544;42.196;24.336;2023-03-14T12:56:56;15.73;;;10.40;;
26375;SDS011;30544;42.196;24.336;2023-03-14T12:59:33;14.90;;;10.25;;
26375;SDS011;30544;42.196;24.336;2023-03-14T13:02:02;22.05;;;10.80;;
26375;SDS011;30544;42.196;24.336;2023-03-14T13:04:45;19.02;;;11.50;;
26375;SDS011;30544;42.196;24.336;2023-03-14T13:07:28;19.80;;;11.90;;
26375;SDS011;30544;42.196;24.336;2023-03-14T13:10:03;20.08;;;12.15;;
26375;SDS011;30544;42.196;24.336;2023-03-14T13:12:44;23.05;;;10.38;;
26375;SDS011;30544;42.196;24.336;2023-03-14T13:15:21;16.52;;;10.77;;
26375;SDS011;30544;42.196;24.336;2023-03-14T13:17:51;17.02;;;10.85;;
26375;SDS011;30544;42.196;24.336;2023-03-14T13:20:21;20.95;;;11.25;;
26375;SDS011;30544;42.196;24.336;2023-03-14T13:22:53;18.48;;;11.00;;
26375;SDS011;30544;42.196;24.336;2023-03-14T13:25:20;17.17;;;9.55;;
26375;SDS011;30544;42.196;24.336;2023-03-14T13:27:48;14.88;;;9.32;;
26375;SDS011;30544;42.196;24.336;2023-03-14T13:30:16;17.55;;;10.00;;
26375;SDS011;30544;42.196;24.336;2023-03-14T13:32:47;18.50;;;10.93;;
26375;SDS011;30544;42.196;24.336;2023-03-14T13:35:16;23.83;;;11.63;;
26375;SDS011;30544;42.196;24.336;2023-03-14T13:37:45;19.50;;;11.38;;
26375;SDS011;30544;42.196;24.336;2023-03-14T13:40:19;22.75;;;11.80;;
26375;SDS011;30544;42.196;24.336;2023-03-14T13:43:02;18.10;;;9.80;;
26375;SDS011;30544;42.196;24.336;2023-03-14T13:45:47;16.85;;;10.15;;
26375;SDS011;30544;42.196;24.336;2023-03-14T13:48:17;16.27;;;8.77;;
26375;SDS011;30544;42.196;24.336;2023-03-14T13:50:46;18.38;;;10.45;;
26375;SDS011;30544;42.196;24.336;2023-03-14T13:53:16;13.43;;;9.02;;
26375;SDS011;30544;42.196;24.336;2023-03-14T13:55:43;15.63;;;9.70;;
26375;SDS011;30544;42.196;24.336;2023-03-14T13:58:11;16.13;;;8.77;;
26375;SDS011;30544;42.196;24.336;2023-03-14T14:00:53;13.23;;;8.98;;
26375;SDS011;30544;42.196;24.336;2023-03-14T14:06:02;16.38;;;8.65;;
26375;SDS011;30544;42.196;24.336;2023-03-14T14:08:32;12.18;;;8.27;;
26375;SDS011;30544;42.196;24.336;2023-03-14T14:11:00;17.25;;;8.35;;
26375;SDS011;30544;42.196;24.336;2023-03-14T14:13:31;14.95;;;8.50;;
26375;SDS011;30544;42.196;24.336;2023-03-14T14:16:00;14.35;;;9.25;;
26375;SDS011;30544;42.196;24.336;2023-03-14T14:18:29;20.00;;;9.30;;
26375;SDS011;30544;42.196;24.336;2023-03-14T14:20:59;13.93;;;9.32;;
26375;SDS011;30544;42.196;24.336;2023-03-14T14:23:27;17.02;;;10.10;;
26375;SDS011;30544;42.196;24.336;2023-03-14T14:25:56;15.75;;;9.60;;
26375;SDS011;30544;42.196;24.336;2023-03-14T14:28:25;18.70;;;8.98;;
26375;SDS011;30544;42.196;24.336;2023-03-14T14:31:05;13.50;;;8.40;;
26375;SDS011;30544;42.196;24.336;2023-03-14T14:33:45;16.50;;;9.23;;
26375;SDS011;30544;42.196;24.336;2023-03-14T14:36:16;17.92;;;10.13;;
26375;SDS011;30544;42.196;24.336;2023-03-14T14:38:50;11.68;;;8.15;;
26375;SDS011;30544;42.196;24.336;2023-03-14T14:41:17;19.08;;;8.82;;
26375;SDS011;30544;42.196;24.336;2023-03-14T14:43:44;13.02;;;8.65;;
26375;SDS011;30544;42.196;24.336;2023-03-14T14:46:13;17.23;;;9.00;;